sensor_id;sensor_type;location;lat;lon;timestamp;P1;durP1;ratioP1;P2;durP2;ratioP2
17650;SDS011;26663;59.302;18.082;2022-08-05T00:01:30;10.63;;;9.57;;
17650;SDS011;26663;59.302;18.082;2022-08-05T00:04:50;11.70;;;10.23;;
17650;SDS011;26663;59.302;18.082;2022-08-05T00:07:59;11.50;;;9.60;;
17650;SDS011;26663;59.302;18.082;2022-08-05T00:11:06;10.80;;;9.70;;
17650;SDS011;26663;59.302;18.082;2022-08-05T00:14:30;11.18;;;10.07;;
17650;SDS011;26663;59.302;18.082;2022-08-05T00:17:35;15.77;;;11.40;;
17650;SDS011;26663;59.302;18.082;2022-08-05T00:20:43;11.57;;;10.43;;
17650;SDS011;26663;59.302;18.082;2022-08-05T00:23:52;11.57;;;10.35;;
17650;SDS011;26663;59.302;18.082;2022-08-05T00:27:13;13.75;;;10.95;;
17650;SDS011;26663;59.302;18.082;2022-08-05T00:30:19;10.95;;;9.88;;
17650;SDS011;26663;59.302;18.082;2022-08-05T00:33:34;11.02;;;10.00;;
17650;SDS011;26663;59.302;18.082;2022-08-05T00:36:59;12.32;;;10.85;;
17650;SDS011;26663;59.302;18.082;2022-08-05T00:40:16;12.63;;;10.40;;
17650;SDS011;26663;59.302;18.082;2022-08-05T00:43:31;14.60;;;10.63;;
17650;SDS011;26663;59.302;18.082;2022-08-05T00:46:52;11.88;;;10.50;;
17650;SDS011;26663;59.302;18.082;2022-08-05T00:50:06;12.45;;;10.75;;
17650;SDS011;26663;59.302;18.082;2022-08-05T00:53:13;11.80;;;10.80;;
17650;SDS011;26663;59.302;18.082;2022-08-05T00:56:41;11.20;;;10.20;;
17650;SDS011;26663;59.302;18.082;2022-08-05T00:59:54;11.20;;;10.15;;
17650;SDS011;26663;59.302;18.082;2022-08-05T01:02:59;13.18;;;10.93;;
17650;SDS011;26663;59.302;18.082;2022-08-05T01:06:10;13.70;;;10.45;;
17650;SDS011;26663;59.302;18.082;2022-08-05T01:09:17;11.40;;;10.40;;
17650;SDS011;26663;59.302;18.082;2022-08-05T01:12:24;15.38;;;10.88;;
17650;SDS011;26663;59.302;18.082;2022-08-05T01:15:33;11.50;;;10.32;;
17650;SDS011;26663;59.302;18.082;2022-08-05T01:18:50;10.80;;;9.88;;
17650;SDS011;26663;59.302;18.082;2022-08-05T01:22:05;12.52;;;10.90;;
17650;SDS011;26663;59.302;18.082;2022-08-05T01:29:17;15.48;;;10.82;;
17650;SDS011;26663;59.302;18.082;2022-08-05T01:32:27;12.25;;;11.25;;
17650;SDS011;26663;59.302;18.082;2022-08-05T01:35:40;11.07;;;9.95;;
17650;SDS011;26663;59.302;18.082;2022-08-05T01:38:54;11.63;;;10.50;;
17650;SDS011;26663;59.302;18.082;2022-08-05T01:42:03;12.25;;;10.93;;
17650;SDS011;26663;59.302;18.082;2022-08-05T01:45:13;11.23;;;10.20;;
17650;SDS011;26663;59.302;18.082;2022-08-05T01:48:19;11.63;;;10.57;;
17650;SDS011;26663;59.302;18.082;2022-08-05T01:51:24;12.55;;;10.77;;
17650;SDS011;26663;59.302;18.082;2022-08-05T01:54:32;12.32;;;10.43;;
17650;SDS011;26663;59.302;18.082;2022-08-05T01:57:49;18.05;;;10.70;;
17650;SDS011;26663;59.302;18.082;2022-08-05T02:01:18;11.68;;;10.57;;
17650;SDS011;26663;59.302;18.082;2022-08-05T02:04:29;12.63;;;11.10;;
17650;SDS011;26663;59.302;18.082;2022-08-05T02:07:38;12.45;;;11.18;;
17650;SDS011;26663;59.302;18.082;2022-08-05T02:11:01;11.45;;;10.45;;
17650;SDS011;26663;59.302;18.082;2022-08-05T02:14:16;12.15;;;11.05;;
17650;SDS011;26663;59.302;18.082;2022-08-05T02:17:28;14.95;;;12.00;;
17650;SDS011;26663;59.302;18.082;2022-08-05T02:20:55;17.77;;;11.32;;
17650;SDS011;26663;59.302;18.082;2022-08-05T02:24:05;17.90;;;12.15;;
17650;SDS011;26663;59.302;18.082;2022-08-05T02:27:20;15.13;;;11.55;;
17650;SDS011;26663;59.302;18.082;2022-08-05T02:30:47;12.57;;;11.35;;
17650;SDS011;26663;59.302;18.082;2022-08-05T02:34:01;13.40;;;11.60;;
17650;SDS011;26663;59.302;18.082;2022-08-05T02:37:12;12.20;;;11.10;;
17650;SDS011;26663;59.302;18.082;2022-08-05T02:40:20;14.50;;;10.65;;
17650;SDS011;26663;59.302;18.082;2022-08-05T02:43:27;14.43;;;11.55;;
17650;SDS011;26663;59.302;18.082;2022-08-05T02:46:37;13.13;;;10.90;;
17650;SDS011;26663;59.302;18.082;2022-08-05T02:50:04;12.70;;;10.63;;
17650;SDS011;26663;59.302;18.082;2022-08-05T02:53:13;13.63;;;10.77;;
17650;SDS011;26663;59.302;18.082;2022-08-05T02:56:22;14.40;;;10.65;;
17650;SDS011;26663;59.302;18.082;2022-08-05T02:59:29;14.57;;;11.00;;
17650;SDS011;26663;59.302;18.082;2022-08-05T03:02:52;11.15;;;10.18;;
17650;SDS011;26663;59.302;18.082;2022-08-05T03:06:01;12.90;;;10.30;;
17650;SDS011;26663;59.302;18.082;2022-08-05T03:09:27;11.75;;;10.75;;
17650;SDS011;26663;59.302;18.082;2022-08-05T03:12:40;17.30;;;10.88;;
17650;SDS011;26663;59.302;18.082;2022-08-05T03:15:46;12.52;;;10.65;;
17650;SDS011;26663;59.302;18.082;2022-08-05T03:18:53;17.27;;;10.80;;
17650;SDS011;26663;59.302;18.082;2022-08-05T03:22:00;12.80;;;10.95;;
17650;SDS011;26663;59.302;18.082;2022-08-05T03:25:18;10.75;;;9.90;;
17650;SDS011;26663;59.302;18.082;2022-08-05T03:28:45;12.32;;;10.48;;
17650;SDS011;26663;59.302;18.082;2022-08-05T03:31:54;16.67;;;10.63;;
17650;SDS011;26663;59.302;18.082;2022-08-05T03:35:03;13.00;;;10.20;;
17650;SDS011;26663;59.302;18.082;2022-08-05T03:38:13;11.57;;;10.00;;
17650;SDS011;26663;59.302;18.082;2022-08-05T03:41:21;11.65;;;10.50;;
17650;SDS011;26663;59.302;18.082;2022-08-05T03:44:27;11.23;;;10.13;;
17650;SDS011;26663;59.302;18.082;2022-08-05T03:47:35;14.63;;;11.38;;
17650;SDS011;26663;59.302;18.082;2022-08-05T03:50:51;13.45;;;10.68;;
17650;SDS011;26663;59.302;18.082;2022-08-05T03:54:27;12.05;;;11.05;;
17650;SDS011;26663;59.302;18.082;2022-08-05T03:57:55;11.68;;;10.68;;
17650;SDS011;26663;59.302;18.082;2022-08-05T04:01:01;14.25;;;10.60;;
17650;SDS011;26663;59.302;18.082;2022-08-05T04:04:09;11.77;;;10.60;;
17650;SDS011;26663;59.302;18.082;2022-08-05T04:07:18;14.25;;;11.10;;
17650;SDS011;26663;59.302;18.082;2022-08-05T04:10:29;16.20;;;12.00;;
17650;SDS011;26663;59.302;18.082;2022-08-05T04:13:40;14.38;;;11.35;;
17650;SDS011;26663;59.302;18.082;2022-08-05T04:16:53;14.05;;;11.57;;
17650;SDS011;26663;59.302;18.082;2022-08-05T04:19:58;16.67;;;11.25;;
17650;SDS011;26663;59.302;18.082;2022-08-05T04:23:05;13.23;;;11.85;;
17650;SDS011;26663;59.302;18.082;2022-08-05T04:26:19;13.32;;;11.88;;
17650;SDS011;26663;59.302;18.082;2022-08-05T04:29:24;13.50;;;12.07;;
17650;SDS011;26663;59.302;18.082;2022-08-05T04:32:31;18.65;;;12.98;;
17650;SDS011;26663;59.302;18.082;2022-08-05T04:35:38;15.70;;;12.77;;
17650;SDS011;26663;59.302;18.082;2022-08-05T04:39:04;14.27;;;12.93;;
17650;SDS011;26663;59.302;18.082;2022-08-05T04:42:11;15.63;;;13.27;;
17650;SDS011;26663;59.302;18.082;2022-08-05T04:45:17;15.07;;;12.75;;
17650;SDS011;26663;59.302;18.082;2022-08-05T04:48:42;16.65;;;13.50;;
17650;SDS011;26663;59.302;18.082;2022-08-05T04:51:48;16.67;;;14.23;;
17650;SDS011;26663;59.302;18.082;2022-08-05T04:55:02;19.38;;;14.43;;
17650;SDS011;26663;59.302;18.082;2022-08-05T04:58:18;16.33;;;14.38;;
17650;SDS011;26663;59.302;18.082;2022-08-05T05:01:24;21.10;;;13.68;;
17650;SDS011;26663;59.302;18.082;2022-08-05T05:04:49;15.27;;;13.43;;
17650;SDS011;26663;59.302;18.082;2022-08-05T05:07:55;14.98;;;13.10;;
17650;SDS011;26663;59.302;18.082;2022-08-05T05:11:04;15.70;;;13.52;;
17650;SDS011;26663;59.302;18.082;2022-08-05T05:14:11;15.73;;;13.38;;
17650;SDS011;26663;59.302;18.082;2022-08-05T05:17:18;17.38;;;13.43;;
17650;SDS011;26663;59.302;18.082;2022-08-05T05:20:27;17.52;;;13.75;;
17650;SDS011;26663;59.302;18.082;2022-08-05T05:23:32;15.32;;;13.48;;
17650;SDS011;26663;59.302;18.082;2022-08-05T05:26:57;15.57;;;14.07;;
17650;SDS011;26663;59.302;18.082;2022-08-05T05:30:05;19.83;;;15.05;;
17650;SDS011;26663;59.302;18.082;2022-08-05T05:33:30;18.23;;;15.45;;
17650;SDS011;26663;59.302;18.082;2022-08-05T05:36:55;15.23;;;13.73;;
17650;SDS011;26663;59.302;18.082;2022-08-05T05:40:01;15.65;;;13.65;;
17650;SDS011;26663;59.302;18.082;2022-08-05T05:43:13;15.60;;;13.98;;
17650;SDS011;26663;59.302;18.082;2022-08-05T05:46:31;20.38;;;14.10;;
17650;SDS011;26663;59.302;18.082;2022-08-05T05:49:42;15.63;;;14.02;;
17650;SDS011;26663;59.302;18.082;2022-08-05T05:52:58;15.77;;;14.13;;
17650;SDS011;26663;59.302;18.082;2022-08-05T05:56:23;15.25;;;13.68;;
17650;SDS011;26663;59.302;18.082;2022-08-05T05:59:35;15.75;;;14.18;;
17650;SDS011;26663;59.302;18.082;2022-08-05T06:02:44;15.02;;;13.35;;
17650;SDS011;26663;59.302;18.082;2022-08-05T06:05:50;14.55;;;12.63;;
17650;SDS011;26663;59.302;18.082;2022-08-05T06:08:57;16.27;;;12.95;;
17650;SDS011;26663;59.302;18.082;2022-08-05T06:12:03;13.75;;;12.35;;
17650;SDS011;26663;59.302;18.082;2022-08-05T06:15:14;15.13;;;13.23;;
17650;SDS011;26663;59.302;18.082;2022-08-05T06:18:28;13.85;;;12.35;;
17650;SDS011;26663;59.302;18.082;2022-08-05T06:21:38;15.23;;;13.65;;
17650;SDS011;26663;59.302;18.082;2022-08-05T06:24:52;13.75;;;12.35;;
17650;SDS011;26663;59.302;18.082;2022-08-05T06:27:58;14.65;;;13.23;;
17650;SDS011;26663;59.302;18.082;2022-08-05T06:31:23;14.15;;;12.73;;
17650;SDS011;26663;59.302;18.082;2022-08-05T06:34:35;11.90;;;10.80;;
17650;SDS011;26663;59.302;18.082;2022-08-05T06:37:43;12.75;;;11.45;;
17650;SDS011;26663;59.302;18.082;2022-08-05T06:41:00;13.63;;;12.32;;
17650;SDS011;26663;59.302;18.082;2022-08-05T06:44:05;10.18;;;9.48;;
17650;SDS011;26663;59.302;18.082;2022-08-05T06:47:11;11.50;;;9.77;;
17650;SDS011;26663;59.302;18.082;2022-08-05T06:50:37;10.63;;;9.63;;
17650;SDS011;26663;59.302;18.082;2022-08-05T06:53:42;11.65;;;9.45;;
17650;SDS011;26663;59.302;18.082;2022-08-05T06:56:56;10.55;;;9.55;;
17650;SDS011;26663;59.302;18.082;2022-08-05T07:00:21;10.63;;;9.52;;
17650;SDS011;26663;59.302;18.082;2022-08-05T07:03:27;9.40;;;8.50;;
17650;SDS011;26663;59.302;18.082;2022-08-05T07:06:36;7.75;;;7.25;;
17650;SDS011;26663;59.302;18.082;2022-08-05T07:09:42;8.93;;;8.23;;
17650;SDS011;26663;59.302;18.082;2022-08-05T07:12:57;9.60;;;8.25;;
17650;SDS011;26663;59.302;18.082;2022-08-05T07:16:40;7.97;;;6.35;;
17650;SDS011;26663;59.302;18.082;2022-08-05T07:20:23;7.70;;;7.20;;
17650;SDS011;26663;59.302;18.082;2022-08-05T07:23:42;7.75;;;7.13;;
17650;SDS011;26663;59.302;18.082;2022-08-05T07:26:52;7.93;;;7.32;;
17650;SDS011;26663;59.302;18.082;2022-08-05T07:29:57;8.30;;;7.43;;
17650;SDS011;26663;59.302;18.082;2022-08-05T07:33:23;7.63;;;7.03;;
17650;SDS011;26663;59.302;18.082;2022-08-05T07:36:39;6.72;;;6.43;;
17650;SDS011;26663;59.302;18.082;2022-08-05T07:39:46;6.82;;;6.40;;
17650;SDS011;26663;59.302;18.082;2022-08-05T07:43:12;9.07;;;7.60;;
17650;SDS011;26663;59.302;18.082;2022-08-05T07:46:23;7.28;;;6.68;;
17650;SDS011;26663;59.302;18.082;2022-08-05T07:49:29;7.28;;;6.78;;
17650;SDS011;26663;59.302;18.082;2022-08-05T07:52:45;7.47;;;6.97;;
17650;SDS011;26663;59.302;18.082;2022-08-05T07:55:53;7.28;;;6.85;;
17650;SDS011;26663;59.302;18.082;2022-08-05T07:59:19;9.45;;;7.35;;
17650;SDS011;26663;59.302;18.082;2022-08-05T08:02:42;7.38;;;6.63;;
17650;SDS011;26663;59.302;18.082;2022-08-05T08:06:07;7.35;;;6.75;;
17650;SDS011;26663;59.302;18.082;2022-08-05T08:09:12;6.10;;;5.60;;
17650;SDS011;26663;59.302;18.082;2022-08-05T08:12:23;5.43;;;5.20;;
17650;SDS011;26663;59.302;18.082;2022-08-05T08:15:43;6.30;;;5.72;;
17650;SDS011;26663;59.302;18.082;2022-08-05T08:19:08;5.45;;;4.70;;
17650;SDS011;26663;59.302;18.082;2022-08-05T08:22:34;5.10;;;4.90;;
17650;SDS011;26663;59.302;18.082;2022-08-05T08:25:39;5.30;;;5.05;;
17650;SDS011;26663;59.302;18.082;2022-08-05T08:29:04;5.20;;;4.82;;
17650;SDS011;26663;59.302;18.082;2022-08-05T08:32:32;4.45;;;4.28;;
17650;SDS011;26663;59.302;18.082;2022-08-05T08:35:43;4.40;;;4.10;;
17650;SDS011;26663;59.302;18.082;2022-08-05T08:39:05;4.68;;;4.32;;
17650;SDS011;26663;59.302;18.082;2022-08-05T08:42:36;5.25;;;4.45;;
17650;SDS011;26663;59.302;18.082;2022-08-05T08:45:55;4.05;;;3.95;;
17650;SDS011;26663;59.302;18.082;2022-08-05T08:49:02;4.38;;;4.18;;
17650;SDS011;26663;59.302;18.082;2022-08-05T08:52:28;5.63;;;5.43;;
17650;SDS011;26663;59.302;18.082;2022-08-05T08:55:35;5.20;;;4.90;;
17650;SDS011;26663;59.302;18.082;2022-08-05T08:59:01;4.40;;;4.35;;
17650;SDS011;26663;59.302;18.082;2022-08-05T09:02:22;4.65;;;4.25;;
17650;SDS011;26663;59.302;18.082;2022-08-05T09:05:29;4.70;;;4.50;;
17650;SDS011;26663;59.302;18.082;2022-08-05T09:08:54;7.53;;;4.50;;
17650;SDS011;26663;59.302;18.082;2022-08-05T09:12:00;3.83;;;3.72;;
17650;SDS011;26663;59.302;18.082;2022-08-05T09:15:24;4.70;;;4.28;;
17650;SDS011;26663;59.302;18.082;2022-08-05T09:18:33;3.75;;;3.65;;
17650;SDS011;26663;59.302;18.082;2022-08-05T09:21:46;6.40;;;3.90;;
17650;SDS011;26663;59.302;18.082;2022-08-05T09:25:16;3.97;;;3.88;;
17650;SDS011;26663;59.302;18.082;2022-08-05T09:28:43;3.97;;;3.78;;
17650;SDS011;26663;59.302;18.082;2022-08-05T09:32:00;4.25;;;3.95;;
17650;SDS011;26663;59.302;18.082;2022-08-05T09:35:28;4.10;;;3.88;;
17650;SDS011;26663;59.302;18.082;2022-08-05T09:38:34;4.25;;;4.00;;
17650;SDS011;26663;59.302;18.082;2022-08-05T09:41:53;4.00;;;3.67;;
17650;SDS011;26663;59.302;18.082;2022-08-05T09:45:05;4.00;;;3.78;;
17650;SDS011;26663;59.302;18.082;2022-08-05T09:48:32;4.38;;;4.10;;
17650;SDS011;26663;59.302;18.082;2022-08-05T09:51:41;3.80;;;3.63;;
17650;SDS011;26663;59.302;18.082;2022-08-05T09:55:01;3.50;;;3.30;;
17650;SDS011;26663;59.302;18.082;2022-08-05T09:58:28;4.22;;;4.13;;
17650;SDS011;26663;59.302;18.082;2022-08-05T10:01:34;4.20;;;4.00;;
17650;SDS011;26663;59.302;18.082;2022-08-05T10:04:48;4.05;;;3.85;;
17650;SDS011;26663;59.302;18.082;2022-08-05T10:07:57;4.07;;;3.72;;
17650;SDS011;26663;59.302;18.082;2022-08-05T10:11:24;4.50;;;4.10;;
17650;SDS011;26663;59.302;18.082;2022-08-05T10:14:37;4.32;;;4.00;;
17650;SDS011;26663;59.302;18.082;2022-08-05T10:21:13;3.90;;;3.70;;
17650;SDS011;26663;59.302;18.082;2022-08-05T10:24:20;4.00;;;3.80;;
17650;SDS011;26663;59.302;18.082;2022-08-05T10:27:29;4.10;;;3.97;;
17650;SDS011;26663;59.302;18.082;2022-08-05T10:30:55;5.15;;;4.70;;
17650;SDS011;26663;59.302;18.082;2022-08-05T10:34:20;4.60;;;4.10;;
17650;SDS011;26663;59.302;18.082;2022-08-05T10:37:32;4.80;;;4.50;;
17650;SDS011;26663;59.302;18.082;2022-08-05T10:40:53;4.53;;;4.38;;
17650;SDS011;26663;59.302;18.082;2022-08-05T10:44:10;7.07;;;6.40;;
17650;SDS011;26663;59.302;18.082;2022-08-05T10:47:19;5.40;;;4.97;;
17650;SDS011;26663;59.302;18.082;2022-08-05T10:50:29;5.15;;;4.72;;
17650;SDS011;26663;59.302;18.082;2022-08-05T10:53:40;5.35;;;4.63;;
17650;SDS011;26663;59.302;18.082;2022-08-05T10:56:49;4.75;;;4.50;;
17650;SDS011;26663;59.302;18.082;2022-08-05T11:00:06;6.07;;;4.88;;
17650;SDS011;26663;59.302;18.082;2022-08-05T11:03:22;6.63;;;4.63;;
17650;SDS011;26663;59.302;18.082;2022-08-05T11:06:29;4.93;;;4.65;;
17650;SDS011;26663;59.302;18.082;2022-08-05T11:09:36;4.75;;;4.45;;
17650;SDS011;26663;59.302;18.082;2022-08-05T11:12:50;12.00;;;5.05;;
17650;SDS011;26663;59.302;18.082;2022-08-05T11:19:43;5.90;;;5.70;;
17650;SDS011;26663;59.302;18.082;2022-08-05T11:23:29;6.32;;;5.90;;
17650;SDS011;26663;59.302;18.082;2022-08-05T11:34:49;35.70;;;31.63;;
17650;SDS011;26663;59.302;18.082;2022-08-05T11:37:58;17.40;;;15.48;;
17650;SDS011;26663;59.302;18.082;2022-08-05T11:41:24;8.82;;;8.23;;
17650;SDS011;26663;59.302;18.082;2022-08-05T11:44:50;6.85;;;6.32;;
17650;SDS011;26663;59.302;18.082;2022-08-05T11:48:07;5.97;;;5.68;;
17650;SDS011;26663;59.302;18.082;2022-08-05T11:51:13;6.70;;;6.20;;
17650;SDS011;26663;59.302;18.082;2022-08-05T11:54:38;7.18;;;6.43;;
17650;SDS011;26663;59.302;18.082;2022-08-05T11:57:46;13.80;;;6.93;;
17650;SDS011;26663;59.302;18.082;2022-08-05T12:01:12;9.88;;;7.50;;
17650;SDS011;26663;59.302;18.082;2022-08-05T12:04:22;26.70;;;15.95;;
17650;SDS011;26663;59.302;18.082;2022-08-05T12:07:32;14.82;;;11.45;;
17650;SDS011;26663;59.302;18.082;2022-08-05T12:10:59;7.97;;;6.50;;
17650;SDS011;26663;59.302;18.082;2022-08-05T12:14:09;15.88;;;11.05;;
17650;SDS011;26663;59.302;18.082;2022-08-05T12:17:15;15.75;;;12.20;;
17650;SDS011;26663;59.302;18.082;2022-08-05T12:20:42;9.77;;;8.23;;
17650;SDS011;26663;59.302;18.082;2022-08-05T12:23:51;8.23;;;7.55;;
17650;SDS011;26663;59.302;18.082;2022-08-05T12:27:06;11.88;;;7.80;;
17650;SDS011;26663;59.302;18.082;2022-08-05T12:30:35;9.65;;;7.05;;
17650;SDS011;26663;59.302;18.082;2022-08-05T12:33:48;8.07;;;7.38;;
17650;SDS011;26663;59.302;18.082;2022-08-05T12:36:57;8.48;;;7.50;;
17650;SDS011;26663;59.302;18.082;2022-08-05T12:40:07;10.82;;;9.27;;
17650;SDS011;26663;59.302;18.082;2022-08-05T12:43:28;16.05;;;9.60;;
17650;SDS011;26663;59.302;18.082;2022-08-05T12:46:36;12.90;;;9.30;;
17650;SDS011;26663;59.302;18.082;2022-08-05T12:49:47;14.20;;;10.63;;
17650;SDS011;26663;59.302;18.082;2022-08-05T12:53:15;11.85;;;10.80;;
17650;SDS011;26663;59.302;18.082;2022-08-05T12:56:21;12.60;;;9.73;;
17650;SDS011;26663;59.302;18.082;2022-08-05T12:59:44;11.27;;;10.13;;
17650;SDS011;26663;59.302;18.082;2022-08-05T13:03:12;11.90;;;10.75;;
17650;SDS011;26663;59.302;18.082;2022-08-05T13:06:17;11.70;;;10.60;;
17650;SDS011;26663;59.302;18.082;2022-08-05T13:09:24;11.88;;;10.68;;
17650;SDS011;26663;59.302;18.082;2022-08-05T13:12:30;12.27;;;10.75;;
17650;SDS011;26663;59.302;18.082;2022-08-05T13:15:48;12.85;;;11.50;;
17650;SDS011;26663;59.302;18.082;2022-08-05T13:18:55;17.02;;;12.27;;
17650;SDS011;26663;59.302;18.082;2022-08-05T13:22:01;13.13;;;11.85;;
17650;SDS011;26663;59.302;18.082;2022-08-05T13:25:08;15.52;;;12.23;;
17650;SDS011;26663;59.302;18.082;2022-08-05T13:28:24;14.63;;;12.32;;
17650;SDS011;26663;59.302;18.082;2022-08-05T13:31:29;17.08;;;12.98;;
17650;SDS011;26663;59.302;18.082;2022-08-05T13:34:54;15.25;;;12.65;;
17650;SDS011;26663;59.302;18.082;2022-08-05T13:38:00;13.68;;;12.18;;
17650;SDS011;26663;59.302;18.082;2022-08-05T13:41:10;14.57;;;12.70;;
17650;SDS011;26663;59.302;18.082;2022-08-05T13:44:18;14.00;;;12.60;;
17650;SDS011;26663;59.302;18.082;2022-08-05T13:47:26;14.02;;;12.52;;
17650;SDS011;26663;59.302;18.082;2022-08-05T13:50:52;14.15;;;12.75;;
17650;SDS011;26663;59.302;18.082;2022-08-05T13:53:58;15.02;;;12.93;;
17650;SDS011;26663;59.302;18.082;2022-08-05T13:57:06;14.63;;;12.35;;
17650;SDS011;26663;59.302;18.082;2022-08-05T14:00:12;14.10;;;12.63;;
17650;SDS011;26663;59.302;18.082;2022-08-05T14:03:19;13.32;;;12.13;;
17650;SDS011;26663;59.302;18.082;2022-08-05T14:06:25;14.25;;;12.80;;
17650;SDS011;26663;59.302;18.082;2022-08-05T14:09:30;15.43;;;12.57;;
17650;SDS011;26663;59.302;18.082;2022-08-05T14:12:49;19.80;;;13.93;;
17650;SDS011;26663;59.302;18.082;2022-08-05T14:15:57;18.10;;;14.20;;
17650;SDS011;26663;59.302;18.082;2022-08-05T14:19:13;18.38;;;14.05;;
17650;SDS011;26663;59.302;18.082;2022-08-05T14:22:18;13.57;;;12.38;;
17650;SDS011;26663;59.302;18.082;2022-08-05T14:25:24;14.43;;;12.98;;
17650;SDS011;26663;59.302;18.082;2022-08-05T14:28:33;19.73;;;13.82;;
17650;SDS011;26663;59.302;18.082;2022-08-05T14:31:54;14.30;;;12.82;;
17650;SDS011;26663;59.302;18.082;2022-08-05T14:35:19;13.55;;;12.15;;
17650;SDS011;26663;59.302;18.082;2022-08-05T14:38:25;10.98;;;9.90;;
17650;SDS011;26663;59.302;18.082;2022-08-05T14:41:38;11.13;;;10.02;;
17650;SDS011;26663;59.302;18.082;2022-08-05T14:45:05;11.43;;;10.32;;
17650;SDS011;26663;59.302;18.082;2022-08-05T14:48:14;11.68;;;10.68;;
17650;SDS011;26663;59.302;18.082;2022-08-05T14:51:36;12.27;;;11.05;;
17650;SDS011;26663;59.302;18.082;2022-08-05T14:54:45;11.18;;;10.07;;
17650;SDS011;26663;59.302;18.082;2022-08-05T14:57:56;10.25;;;9.45;;
17650;SDS011;26663;59.302;18.082;2022-08-05T15:01:03;9.98;;;9.25;;
17650;SDS011;26663;59.302;18.082;2022-08-05T15:04:17;11.02;;;10.15;;
17650;SDS011;26663;59.302;18.082;2022-08-05T15:07:24;10.68;;;9.77;;
17650;SDS011;26663;59.302;18.082;2022-08-05T15:10:50;10.52;;;9.63;;
17650;SDS011;26663;59.302;18.082;2022-08-05T15:13:56;10.02;;;9.23;;
17650;SDS011;26663;59.302;18.082;2022-08-05T15:17:03;9.27;;;8.52;;
17650;SDS011;26663;59.302;18.082;2022-08-05T15:20:28;8.18;;;7.55;;
17650;SDS011;26663;59.302;18.082;2022-08-05T15:23:34;6.93;;;6.43;;
17650;SDS011;26663;59.302;18.082;2022-08-05T15:26:40;5.85;;;5.55;;
17650;SDS011;26663;59.302;18.082;2022-08-05T15:29:46;5.43;;;5.32;;
17650;SDS011;26663;59.302;18.082;2022-08-05T15:32:52;5.30;;;5.10;;
17650;SDS011;26663;59.302;18.082;2022-08-05T15:35:58;5.40;;;5.20;;
17650;SDS011;26663;59.302;18.082;2022-08-05T15:39:05;5.15;;;4.85;;
17650;SDS011;26663;59.302;18.082;2022-08-05T15:42:31;4.75;;;4.45;;
17650;SDS011;26663;59.302;18.082;2022-08-05T15:45:56;4.43;;;4.32;;
17650;SDS011;26663;59.302;18.082;2022-08-05T15:49:05;4.68;;;4.50;;
17650;SDS011;26663;59.302;18.082;2022-08-05T15:52:13;4.60;;;4.40;;
17650;SDS011;26663;59.302;18.082;2022-08-05T15:55:38;4.65;;;4.45;;
17650;SDS011;26663;59.302;18.082;2022-08-05T15:59:04;4.60;;;4.40;;
17650;SDS011;26663;59.302;18.082;2022-08-05T16:02:10;4.68;;;4.47;;
17650;SDS011;26663;59.302;18.082;2022-08-05T16:05:23;4.47;;;4.10;;
17650;SDS011;26663;59.302;18.082;2022-08-05T16:08:30;4.63;;;4.43;;
17650;SDS011;26663;59.302;18.082;2022-08-05T16:11:38;5.18;;;4.88;;
17650;SDS011;26663;59.302;18.082;2022-08-05T16:14:45;4.90;;;4.60;;
17650;SDS011;26663;59.302;18.082;2022-08-05T16:17:50;4.47;;;4.20;;
17650;SDS011;26663;59.302;18.082;2022-08-05T16:21:01;4.18;;;3.95;;
17650;SDS011;26663;59.302;18.082;2022-08-05T16:24:08;4.20;;;3.97;;
17650;SDS011;26663;59.302;18.082;2022-08-05T16:27:33;4.53;;;4.35;;
17650;SDS011;26663;59.302;18.082;2022-08-05T16:30:59;4.78;;;4.47;;
17650;SDS011;26663;59.302;18.082;2022-08-05T16:34:05;5.18;;;4.75;;
17650;SDS011;26663;59.302;18.082;2022-08-05T16:37:13;4.40;;;4.20;;
17650;SDS011;26663;59.302;18.082;2022-08-05T16:40:38;4.75;;;4.35;;
17650;SDS011;26663;59.302;18.082;2022-08-05T16:43:49;5.00;;;4.72;;
17650;SDS011;26663;59.302;18.082;2022-08-05T16:46:58;4.95;;;4.75;;
17650;SDS011;26663;59.302;18.082;2022-08-05T16:50:06;4.45;;;4.32;;
17650;SDS011;26663;59.302;18.082;2022-08-05T16:53:17;4.07;;;3.88;;
17650;SDS011;26663;59.302;18.082;2022-08-05T16:56:35;3.90;;;3.80;;
17650;SDS011;26663;59.302;18.082;2022-08-05T16:59:43;3.90;;;3.80;;
17650;SDS011;26663;59.302;18.082;2022-08-05T17:03:13;3.65;;;3.58;;
17650;SDS011;26663;59.302;18.082;2022-08-05T17:06:22;3.83;;;3.53;;
17650;SDS011;26663;59.302;18.082;2022-08-05T17:09:29;3.33;;;3.33;;
17650;SDS011;26663;59.302;18.082;2022-08-05T17:12:55;3.50;;;3.20;;
17650;SDS011;26663;59.302;18.082;2022-08-05T17:16:03;3.25;;;3.15;;
17650;SDS011;26663;59.302;18.082;2022-08-05T17:19:29;3.35;;;3.30;;
17650;SDS011;26663;59.302;18.082;2022-08-05T17:22:36;3.33;;;3.13;;
17650;SDS011;26663;59.302;18.082;2022-08-05T17:25:43;5.07;;;3.05;;
17650;SDS011;26663;59.302;18.082;2022-08-05T17:28:48;3.50;;;3.40;;
17650;SDS011;26663;59.302;18.082;2022-08-05T17:31:53;3.70;;;3.40;;
17650;SDS011;26663;59.302;18.082;2022-08-05T17:35:01;4.85;;;4.45;;
17650;SDS011;26663;59.302;18.082;2022-08-05T17:38:10;13.32;;;5.47;;
17650;SDS011;26663;59.302;18.082;2022-08-05T17:41:21;10.75;;;5.32;;
17650;SDS011;26663;59.302;18.082;2022-08-05T17:44:46;13.25;;;4.82;;
17650;SDS011;26663;59.302;18.082;2022-08-05T17:47:53;9.52;;;4.70;;
17650;SDS011;26663;59.302;18.082;2022-08-05T17:50:59;5.65;;;5.13;;
17650;SDS011;26663;59.302;18.082;2022-08-05T17:54:11;4.75;;;4.40;;
17650;SDS011;26663;59.302;18.082;2022-08-05T17:57:26;4.70;;;4.30;;
17650;SDS011;26663;59.302;18.082;2022-08-05T18:00:33;5.97;;;4.05;;
17650;SDS011;26663;59.302;18.082;2022-08-05T18:03:42;3.72;;;3.63;;
17650;SDS011;26663;59.302;18.082;2022-08-05T18:07:06;3.70;;;3.60;;
17650;SDS011;26663;59.302;18.082;2022-08-05T18:10:16;4.38;;;3.95;;
17650;SDS011;26663;59.302;18.082;2022-08-05T18:13:24;4.63;;;4.20;;
17650;SDS011;26663;59.302;18.082;2022-08-05T18:16:38;4.78;;;4.38;;
17650;SDS011;26663;59.302;18.082;2022-08-05T18:19:54;5.20;;;4.82;;
17650;SDS011;26663;59.302;18.082;2022-08-05T18:23:19;5.60;;;4.13;;
17650;SDS011;26663;59.302;18.082;2022-08-05T18:26:24;4.82;;;4.43;;
17650;SDS011;26663;59.302;18.082;2022-08-05T18:29:35;4.85;;;4.38;;
17650;SDS011;26663;59.302;18.082;2022-08-05T18:32:43;4.93;;;4.53;;
17650;SDS011;26663;59.302;18.082;2022-08-05T18:35:55;4.47;;;4.07;;
17650;SDS011;26663;59.302;18.082;2022-08-05T18:39:08;4.60;;;4.40;;
17650;SDS011;26663;59.302;18.082;2022-08-05T18:42:33;5.20;;;4.70;;
17650;SDS011;26663;59.302;18.082;2022-08-05T18:45:41;4.70;;;4.45;;
17650;SDS011;26663;59.302;18.082;2022-08-05T18:48:48;4.47;;;4.07;;
17650;SDS011;26663;59.302;18.082;2022-08-05T18:51:55;4.88;;;4.55;;
17650;SDS011;26663;59.302;18.082;2022-08-05T18:55:18;4.90;;;4.68;;
17650;SDS011;26663;59.302;18.082;2022-08-05T18:58:24;5.25;;;4.80;;
17650;SDS011;26663;59.302;18.082;2022-08-05T19:01:32;5.95;;;5.50;;
17650;SDS011;26663;59.302;18.082;2022-08-05T19:04:58;7.25;;;5.47;;
17650;SDS011;26663;59.302;18.082;2022-08-05T19:08:24;5.07;;;4.72;;
17650;SDS011;26663;59.302;18.082;2022-08-05T19:11:33;4.40;;;4.20;;